Time;durP1;ratioP1;P1;durP2;ratioP2;P2;SDS_P1;SDS_P2;PMS_P1;PMS_P2;Temp;Humidity;BMP_temperature;BMP_pressure;BME280_temperature;BME280_humidity;BME280_pressure;Samples;Min_cycle;Max_cycle;Signal;HPM_P1;HPM_P2
2022/04/08 00:01:15;;;;;;;7.32;1.13;;;;;;;;;;5008337;28;20111;-72
2022/04/08 00:03:40;;;;;;;8.75;1.40;;;;;;;;;;5009724;28;20042;-72
2022/04/08 00:06:06;;;;;;;5.30;1.27;;;;;;;;;;5025057;28;20057;-72
2022/04/08 00:08:31;;;;;;;2.85;1.50;;;;;;;;;;5008673;28;20018;-72
2022/04/08 00:10:56;;;;;;;6.32;1.30;;;;;;;;;;5009093;28;20046;-72
2022/04/08 00:13:22;;;;;;;9.65;1.67;;;;;;;;;;5007003;28;20053;-72
2022/04/08 00:15:47;;;;;;;7.38;1.40;;;;;;;;;;5008797;28;20049;-72
2022/04/08 00:18:12;;;;;;;7.72;1.80;;;;;;;;;;5006832;28;20080;-72
2022/04/08 00:20:38;;;;;;;8.90;1.40;;;;;;;;;;5008315;28;20065;-72
2022/04/08 00:23:04;;;;;;;3.30;1.27;;;;;;;;;;5010365;28;20116;-72
2022/04/08 00:25:30;;;;;;;6.63;2.20;;;;;;;;;;5028804;28;20421;-72
2022/04/08 00:27:55;;;;;;;4.70;1.50;;;;;;;;;;5012787;28;20562;-73
2022/04/08 00:30:20;;;;;;;6.85;1.23;;;;;;;;;;5010496;28;20041;-72
2022/04/08 00:32:46;;;;;;;4.13;1.20;;;;;;;;;;5006772;28;20447;-72
2022/04/08 00:35:11;;;;;;;9.45;1.67;;;;;;;;;;5010192;28;20427;-72
2022/04/08 00:37:37;;;;;;;5.18;1.58;;;;;;;;;;5008467;28;20121;-73
2022/04/08 00:40:03;;;;;;;7.53;1.30;;;;;;;;;;5009644;28;20107;-72
2022/04/08 00:42:28;;;;;;;3.22;1.13;;;;;;;;;;5009591;28;20038;-72
2022/04/08 00:44:54;;;;;;;6.90;1.40;;;;;;;;;;5009661;28;20048;-72
2022/04/08 00:47:19;;;;;;;4.35;1.10;;;;;;;;;;5008329;28;20025;-73
2022/04/08 00:49:45;;;;;;;5.13;1.45;;;;;;;;;;5007744;28;20473;-72
2022/04/08 00:52:10;;;;;;;5.57;1.33;;;;;;;;;;5000662;28;20527;-72
2022/04/08 00:54:37;;;;;;;5.30;1.40;;;;;;;;;;5007126;28;20034;-73
2022/04/08 00:57:03;;;;;;;8.38;1.85;;;;;;;;;;5009412;28;20034;-72
2022/04/08 00:59:29;;;;;;;4.80;1.35;;;;;;;;;;5006744;28;20582;-72
2022/04/08 01:01:57;;;;;;;6.70;1.17;;;;;;;;;;5009646;28;20125;-72
2022/04/08 01:04:23;;;;;;;6.03;1.55;;;;;;;;;;4995446;28;20046;-72
2022/04/08 01:06:49;;;;;;;8.95;1.58;;;;;;;;;;5009393;28;20038;-72
2022/04/08 01:09:15;;;;;;;6.88;1.55;;;;;;;;;;5006034;28;20050;-72
2022/04/08 01:11:42;;;;;;;4.90;1.45;;;;;;;;;;4990053;28;20105;-72
2022/04/08 01:14:12;;;;;;;12.93;1.98;;;;;;;;;;5006650;28;20029;-72
2022/04/08 01:16:38;;;;;;;6.40;1.25;;;;;;;;;;4992446;28;20053;-72
2022/04/08 01:19:03;;;;;;;4.28;1.30;;;;;;;;;;5006337;28;20038;-72
2022/04/08 01:21:29;;;;;;;7.05;1.48;;;;;;;;;;5007699;28;20069;-72
2022/04/08 01:23:56;;;;;;;4.85;1.50;;;;;;;;;;5008753;28;20038;-72
2022/04/08 01:26:21;;;;;;;10.18;1.65;;;;;;;;;;5009229;28;20105;-72
2022/04/08 01:28:47;;;;;;;8.45;1.80;;;;;;;;;;4982634;28;20125;-72
2022/04/08 01:31:13;;;;;;;6.03;1.20;;;;;;;;;;4987667;28;20030;-72
2022/04/08 01:33:38;;;;;;;10.13;1.38;;;;;;;;;;4986923;28;20080;-72
2022/04/08 01:36:04;;;;;;;5.10;1.27;;;;;;;;;;4988732;28;20049;-72
2022/04/08 01:38:29;;;;;;;4.15;1.92;;;;;;;;;;4982116;28;20081;-72
2022/04/08 01:40:54;;;;;;;5.95;1.42;;;;;;;;;;4987271;28;20727;-72
2022/04/08 01:43:20;;;;;;;6.43;1.48;;;;;;;;;;4987504;28;20068;-72
2022/04/08 01:45:45;;;;;;;5.72;1.40;;;;;;;;;;4985536;28;20054;-72
2022/04/08 01:48:10;;;;;;;4.63;1.42;;;;;;;;;;4977048;28;20523;-72
2022/04/08 01:50:36;;;;;;;3.72;1.58;;;;;;;;;;4986957;28;20069;-72
2022/04/08 01:53:01;;;;;;;5.40;1.48;;;;;;;;;;4988790;28;20664;-72
2022/04/08 01:55:26;;;;;;;6.70;1.60;;;;;;;;;;5002287;28;20041;-72
2022/04/08 01:57:52;;;;;;;6.25;1.55;;;;;;;;;;4992010;28;20034;-72
2022/04/08 02:00:17;;;;;;;5.65;1.73;;;;;;;;;;5007372;28;20038;-72
2022/04/08 02:02:42;;;;;;;5.40;1.88;;;;;;;;;;5007666;28;20045;-72
2022/04/08 02:05:08;;;;;;;5.50;1.90;;;;;;;;;;5007257;28;20033;-72
2022/04/08 02:07:33;;;;;;;5.85;1.65;;;;;;;;;;5008071;28;20034;-72
2022/04/08 02:09:59;;;;;;;6.22;2.28;;;;;;;;;;5005925;28;20092;-72
2022/04/08 02:12:24;;;;;;;5.90;2.05;;;;;;;;;;5005906;28;20041;-72
2022/04/08 02:14:50;;;;;;;3.63;1.60;;;;;;;;;;5005854;28;20044;-73
2022/04/08 02:17:17;;;;;;;11.38;1.70;;;;;;;;;;5008172;28;20029;-72
2022/04/08 02:19:42;;;;;;;3.05;1.95;;;;;;;;;;5005898;28;20157;-72
2022/04/08 02:22:08;;;;;;;6.43;1.67;;;;;;;;;;5007425;28;20129;-72
2022/04/08 02:24:34;;;;;;;5.32;1.50;;;;;;;;;;5008437;28;20034;-72
2022/04/08 02:26:59;;;;;;;4.13;1.50;;;;;;;;;;5006608;28;20034;-72
2022/04/08 02:29:24;;;;;;;6.63;1.63;;;;;;;;;;5012072;28;20080;-73
2022/04/08 02:31:50;;;;;;;3.00;1.48;;;;;;;;;;5006894;28;20791;-72
2022/04/08 02:34:16;;;;;;;7.05;1.42;;;;;;;;;;5005601;28;20037;-72
2022/04/08 02:36:42;;;;;;;6.03;1.50;;;;;;;;;;5006315;28;20034;-72
2022/04/08 02:39:08;;;;;;;4.10;1.40;;;;;;;;;;4999170;28;20507;-72
2022/04/08 02:41:33;;;;;;;4.13;1.50;;;;;;;;;;5006815;28;20026;-72
2022/04/08 02:43:59;;;;;;;5.30;1.40;;;;;;;;;;5011541;28;20022;-72
2022/04/08 02:46:24;;;;;;;5.22;1.60;;;;;;;;;;5010188;28;20076;-72
2022/04/08 02:48:50;;;;;;;4.40;1.50;;;;;;;;;;5010670;28;20038;-72
2022/04/08 02:51:16;;;;;;;5.53;1.55;;;;;;;;;;5010285;28;20042;-72
2022/04/08 02:53:41;;;;;;;4.47;2.03;;;;;;;;;;5009357;28;20479;-72
2022/04/08 02:56:06;;;;;;;10.63;1.65;;;;;;;;;;5010741;28;20100;-72
2022/04/08 02:58:32;;;;;;;3.47;1.42;;;;;;;;;;5010715;28;20388;-72
2022/04/08 03:00:59;;;;;;;8.38;1.90;;;;;;;;;;5010849;28;20030;-72
2022/04/08 03:03:26;;;;;;;3.75;1.60;;;;;;;;;;5011175;28;20042;-72
2022/04/08 03:05:52;;;;;;;3.80;1.50;;;;;;;;;;5015533;28;20038;-72
2022/04/08 03:08:17;;;;;;;5.70;1.95;;;;;;;;;;5011151;28;20033;-72
2022/04/08 03:10:43;;;;;;;4.85;1.70;;;;;;;;;;5009624;28;20045;-72
2022/04/08 03:13:09;;;;;;;5.85;1.65;;;;;;;;;;5009086;28;20042;-72
2022/04/08 03:15:34;;;;;;;4.07;1.83;;;;;;;;;;5008841;28;20060;-72
2022/04/08 03:17:59;;;;;;;4.93;1.90;;;;;;;;;;5010180;28;20060;-72
2022/04/08 03:20:25;;;;;;;2.83;1.42;;;;;;;;;;5009069;28;20037;-72
2022/04/08 03:22:50;;;;;;;5.10;1.60;;;;;;;;;;5012111;28;20121;-72
2022/04/08 03:25:15;;;;;;;4.57;1.42;;;;;;;;;;5009173;28;20121;-72
2022/04/08 03:27:41;;;;;;;4.10;1.42;;;;;;;;;;4997689;28;20038;-72
2022/04/08 03:30:07;;;;;;;4.95;1.52;;;;;;;;;;5007051;28;20034;-72
2022/04/08 03:32:32;;;;;;;9.05;2.10;;;;;;;;;;5008263;28;20018;-72
2022/04/08 03:34:57;;;;;;;9.02;1.55;;;;;;;;;;5010264;28;20057;-72
2022/04/08 03:37:26;;;;;;;7.40;1.88;;;;;;;;;;5009193;28;20148;-72
2022/04/08 03:39:53;;;;;;;8.05;1.60;;;;;;;;;;5004430;28;20039;-72
2022/04/08 03:42:18;;;;;;;4.50;1.50;;;;;;;;;;5008589;28;20096;-72
2022/04/08 03:44:44;;;;;;;9.13;1.60;;;;;;;;;;5010214;28;20117;-72
2022/04/08 03:47:09;;;;;;;6.60;1.48;;;;;;;;;;5009799;28;20017;-72
2022/04/08 03:49:36;;;;;;;6.18;1.42;;;;;;;;;;5009665;28;20037;-72
2022/04/08 03:52:04;;;;;;;3.70;1.48;;;;;;;;;;5007993;28;20046;-72
2022/04/08 03:54:30;;;;;;;5.75;1.83;;;;;;;;;;5007774;28;20033;-72
2022/04/08 03:56:55;;;;;;;11.52;2.08;;;;;;;;;;5007867;28;20059;-72
2022/04/08 03:59:22;;;;;;;9.52;2.30;;;;;;;;;;5010130;28;20041;-72
2022/04/08 04:01:48;;;;;;;8.18;2.63;;;;;;;;;;5008826;28;20500;-72
2022/04/08 04:04:13;;;;;;;6.97;1.98;;;;;;;;;;5010700;28;20286;-72
2022/04/08 04:06:38;;;;;;;6.28;1.80;;;;;;;;;;5008862;28;20499;-72
2022/04/08 04:09:04;;;;;;;5.45;1.92;;;;;;;;;;5009115;28;20129;-72
2022/04/08 04:11:29;;;;;;;7.13;1.92;;;;;;;;;;5008815;28;20032;-72
2022/04/08 04:13:55;;;;;;;3.97;1.60;;;;;;;;;;5008045;28;20030;-72
2022/04/08 04:16:20;;;;;;;2.85;1.65;;;;;;;;;;5007372;28;20050;-72
2022/04/08 04:18:46;;;;;;;13.90;2.00;;;;;;;;;;5008967;28;20482;-72
2022/04/08 04:21:12;;;;;;;6.13;1.67;;;;;;;;;;5007001;28;20038;-72
2022/04/08 04:23:38;;;;;;;7.60;1.65;;;;;;;;;;5017028;28;20408;-72
2022/04/08 04:26:03;;;;;;;3.58;1.40;;;;;;;;;;5017326;28;20034;-72
2022/04/08 04:28:33;;;;;;;2.30;1.38;;;;;;;;;;5002645;28;20547;-72
2022/04/08 04:31:03;;;;;;;4.40;1.50;;;;;;;;;;5008788;28;20534;-72
2022/04/08 04:33:29;;;;;;;7.55;1.75;;;;;;;;;;5006646;28;20042;-72
2022/04/08 04:35:55;;;;;;;5.57;1.60;;;;;;;;;;5004972;28;20034;-72
2022/04/08 04:38:21;;;;;;;4.40;1.73;;;;;;;;;;5004654;28;20490;-72
2022/04/08 04:40:46;;;;;;;7.97;1.83;;;;;;;;;;5008535;28;20057;-72
2022/04/08 04:43:11;;;;;;;5.65;1.92;;;;;;;;;;5009477;28;20420;-72
2022/04/08 04:45:38;;;;;;;7.18;1.95;;;;;;;;;;5007322;28;20041;-72
2022/04/08 04:48:05;;;;;;;6.63;1.80;;;;;;;;;;4999989;28;20818;-72
2022/04/08 04:50:31;;;;;;;6.63;1.92;;;;;;;;;;5008649;28;20033;-72
2022/04/08 04:52:56;;;;;;;10.85;1.90;;;;;;;;;;5006702;28;20036;-72
2022/04/08 04:55:21;;;;;;;8.98;2.03;;;;;;;;;;5008540;28;20033;-72
2022/04/08 04:57:47;;;;;;;8.35;1.70;;;;;;;;;;5008495;28;20490;-72
2022/04/08 05:00:13;;;;;;;8.38;2.08;;;;;;;;;;5007424;28;20045;-72
2022/04/08 05:02:39;;;;;;;8.48;2.00;;;;;;;;;;5006517;28;20049;-72
2022/04/08 05:05:06;;;;;;;7.88;2.08;;;;;;;;;;5017243;28;20029;-72
2022/04/08 05:07:32;;;;;;;10.18;2.17;;;;;;;;;;5008819;28;20034;-72
2022/04/08 05:09:57;;;;;;;8.80;2.53;;;;;;;;;;5007651;28;20049;-73
2022/04/08 05:12:22;;;;;;;11.15;2.00;;;;;;;;;;5007671;28;20109;-72
2022/04/08 05:14:48;;;;;;;11.15;1.98;;;;;;;;;;5007905;28;20085;-72
2022/04/08 05:17:13;;;;;;;4.53;1.70;;;;;;;;;;5006792;28;20452;-72
2022/04/08 05:19:38;;;;;;;13.63;2.33;;;;;;;;;;5007892;28;20037;-73
2022/04/08 05:22:04;;;;;;;4.70;1.58;;;;;;;;;;4992567;28;20039;-72
2022/04/08 05:24:29;;;;;;;10.02;1.90;;;;;;;;;;4986270;28;20050;-72
2022/04/08 05:26:54;;;;;;;8.68;1.77;;;;;;;;;;4985117;28;20057;-72
2022/04/08 05:29:20;;;;;;;11.30;2.38;;;;;;;;;;4986482;28;20030;-72
2022/04/08 05:31:46;;;;;;;4.35;1.80;;;;;;;;;;4988314;28;20695;-72
2022/04/08 05:34:11;;;;;;;5.45;1.63;;;;;;;;;;4986408;28;20041;-72
2022/04/08 05:36:36;;;;;;;7.05;2.00;;;;;;;;;;4988517;28;20545;-72
2022/04/08 05:39:02;;;;;;;9.25;2.25;;;;;;;;;;4985725;28;20064;-72
2022/04/08 05:41:27;;;;;;;8.45;1.98;;;;;;;;;;4988109;28;20089;-72
2022/04/08 05:43:54;;;;;;;10.75;2.50;;;;;;;;;;4988355;28;20073;-72
2022/04/08 05:46:19;;;;;;;6.07;2.38;;;;;;;;;;4986143;28;20038;-72
2022/04/08 05:48:45;;;;;;;5.35;2.10;;;;;;;;;;4988106;28;20684;-72
2022/04/08 05:51:10;;;;;;;8.68;2.10;;;;;;;;;;4972867;28;20097;-72
2022/04/08 05:53:35;;;;;;;6.80;2.50;;;;;;;;;;4988131;28;20030;-72
2022/04/08 05:56:02;;;;;;;6.18;2.08;;;;;;;;;;4981815;28;20033;-72
2022/04/08 05:58:28;;;;;;;4.00;1.67;;;;;;;;;;4987393;28;20188;-72
2022/04/08 06:00:53;;;;;;;5.55;1.80;;;;;;;;;;4987353;28;20568;-72
2022/04/08 06:03:18;;;;;;;6.63;2.10;;;;;;;;;;4987164;28;20065;-72
2022/04/08 06:05:44;;;;;;;3.50;1.80;;;;;;;;;;4987412;28;20041;-72
2022/04/08 06:08:09;;;;;;;6.63;2.10;;;;;;;;;;4987886;28;20026;-72
2022/04/08 06:10:36;;;;;;;5.40;1.95;;;;;;;;;;4986751;28;20731;-72
2022/04/08 06:13:02;;;;;;;6.97;2.03;;;;;;;;;;5000160;28;20044;-72
2022/04/08 06:15:27;;;;;;;5.30;1.90;;;;;;;;;;5005994;28;20030;-72
2022/04/08 06:17:57;;;;;;;5.70;1.90;;;;;;;;;;5005504;28;20034;-72
2022/04/08 06:20:23;;;;;;;6.85;1.90;;;;;;;;;;5004394;28;20036;-72
2022/04/08 06:22:49;;;;;;;6.03;1.80;;;;;;;;;;5009512;28;20037;-72
2022/04/08 06:25:17;;;;;;;6.75;1.98;;;;;;;;;;5010971;28;20535;-72
2022/04/08 06:27:46;;;;;;;4.05;1.90;;;;;;;;;;5006412;28;20045;-72
2022/04/08 06:30:14;;;;;;;3.95;1.50;;;;;;;;;;5008120;28;20161;-73
2022/04/08 06:32:41;;;;;;;6.22;2.42;;;;;;;;;;5007414;28;20026;-72
2022/04/08 06:35:07;;;;;;;3.30;1.50;;;;;;;;;;5006685;28;20025;-72
2022/04/08 06:37:33;;;;;;;4.95;2.05;;;;;;;;;;5005816;28;20096;-72
2022/04/08 06:40:07;;;;;;;5.88;1.95;;;;;;;;;;5005596;28;20041;-72
2022/04/08 06:42:32;;;;;;;6.80;2.00;;;;;;;;;;5008488;28;20037;-72
2022/04/08 06:44:58;;;;;;;5.72;2.28;;;;;;;;;;5007150;28;20450;-72
2022/04/08 06:47:24;;;;;;;9.23;2.80;;;;;;;;;;5004647;28;20049;-72
2022/04/08 06:49:49;;;;;;;5.93;2.40;;;;;;;;;;5007748;28;20599;-72
2022/04/08 06:52:15;;;;;;;18.73;6.15;;;;;;;;;;5005682;28;20849;-72
2022/04/08 06:54:41;;;;;;;13.50;3.28;;;;;;;;;;5006585;28;20042;-72
2022/04/08 06:57:07;;;;;;;7.07;3.03;;;;;;;;;;5005693;28;20795;-72
2022/04/08 06:59:33;;;;;;;10.40;2.42;;;;;;;;;;5006017;28;20030;-72
2022/04/08 07:01:58;;;;;;;4.45;2.25;;;;;;;;;;5005941;28;20038;-72
2022/04/08 07:04:25;;;;;;;7.95;2.67;;;;;;;;;;5011207;28;20418;-72
2022/04/08 07:06:51;;;;;;;12.10;2.67;;;;;;;;;;5006425;28;20038;-72
2022/04/08 07:09:16;;;;;;;11.20;3.45;;;;;;;;;;5006929;28;20045;-72
2022/04/08 07:11:41;;;;;;;32.10;13.73;;;;;;;;;;5005834;28;20041;-72
2022/04/08 07:14:07;;;;;;;20.00;8.35;;;;;;;;;;5007738;28;20545;-72
2022/04/08 07:16:33;;;;;;;11.68;3.25;;;;;;;;;;5005235;28;20528;-72
2022/04/08 07:18:59;;;;;;;10.63;4.15;;;;;;;;;;5005709;28;20073;-72
2022/04/08 07:21:24;;;;;;;11.57;3.30;;;;;;;;;;5005286;28;20050;-72
2022/04/08 07:23:49;;;;;;;6.18;2.95;;;;;;;;;;5016721;28;20457;-72
2022/04/08 07:26:15;;;;;;;8.77;2.58;;;;;;;;;;5003108;28;20053;-72
2022/04/08 07:28:41;;;;;;;8.45;2.75;;;;;;;;;;5000601;28;20034;-72
2022/04/08 07:31:06;;;;;;;8.40;2.42;;;;;;;;;;5009798;28;20063;-72
2022/04/08 07:33:31;;;;;;;8.98;2.70;;;;;;;;;;5009441;28;20130;-72
2022/04/08 07:35:58;;;;;;;10.45;2.85;;;;;;;;;;5010237;28;20048;-73
2022/04/08 07:38:24;;;;;;;10.88;3.00;;;;;;;;;;5008701;28;20802;-72
2022/04/08 07:40:50;;;;;;;6.90;2.90;;;;;;;;;;5010780;28;20117;-72
2022/04/08 07:43:16;;;;;;;9.52;2.75;;;;;;;;;;5010054;28;20050;-72
2022/04/08 07:45:42;;;;;;;8.45;2.92;;;;;;;;;;5010505;28;20502;-72
2022/04/08 07:48:08;;;;;;;15.18;3.03;;;;;;;;;;5008441;28;20038;-72
2022/04/08 07:50:33;;;;;;;8.48;2.35;;;;;;;;;;5010085;28;20030;-72
2022/04/08 07:52:58;;;;;;;8.25;2.83;;;;;;;;;;5008707;28;20022;-72
2022/04/08 07:55:26;;;;;;;15.07;3.28;;;;;;;;;;5010856;28;20403;-72
2022/04/08 07:57:52;;;;;;;11.40;3.30;;;;;;;;;;5008387;28;20045;-72
2022/04/08 08:00:19;;;;;;;8.75;2.50;;;;;;;;;;5010289;28;20034;-72
2022/04/08 08:02:45;;;;;;;10.85;3.22;;;;;;;;;;5008196;28;20038;-72
2022/04/08 08:05:11;;;;;;;13.70;3.45;;;;;;;;;;5021649;28;20037;-72
2022/04/08 08:07:57;;;;;;;10.30;2.92;;;;;;;;;;5013194;28;20041;-73
2022/04/08 08:10:25;;;;;;;11.45;2.65;;;;;;;;;;5009393;28;20530;-72
2022/04/08 08:12:52;;;;;;;10.65;2.92;;;;;;;;;;5008228;28;20049;-72
2022/04/08 08:15:18;;;;;;;11.45;3.00;;;;;;;;;;5009708;28;20088;-72
2022/04/08 08:17:45;;;;;;;9.85;3.10;;;;;;;;;;5006977;28;20041;-72
2022/04/08 08:20:12;;;;;;;10.55;3.03;;;;;;;;;;5010077;28;20033;-72
2022/04/08 08:22:37;;;;;;;10.70;3.33;;;;;;;;;;5006776;28;20426;-72
2022/04/08 08:25:05;;;;;;;11.18;2.88;;;;;;;;;;5013457;28;20125;-72
2022/04/08 08:27:44;;;;;;;9.68;2.55;;;;;;;;;;5001907;28;20042;-72
2022/04/08 08:30:14;;;;;;;9.30;3.50;;;;;;;;;;5008042;28;20041;-72
2022/04/08 08:32:42;;;;;;;7.78;2.70;;;;;;;;;;5007993;28;20088;-72
2022/04/08 08:35:09;;;;;;;8.23;2.90;;;;;;;;;;5009592;28;20033;-72
2022/04/08 08:37:35;;;;;;;11.50;2.67;;;;;;;;;;5008545;28;20038;-72
2022/04/08 08:40:01;;;;;;;10.23;2.83;;;;;;;;;;5007735;28;20042;-72
2022/04/08 08:42:28;;;;;;;9.05;3.03;;;;;;;;;;5010882;28;20817;-72
2022/04/08 08:44:54;;;;;;;8.95;2.85;;;;;;;;;;5007486;28;20045;-72
2022/04/08 08:47:19;;;;;;;5.72;2.70;;;;;;;;;;5009788;28;20026;-72
2022/04/08 08:49:49;;;;;;;7.80;2.95;;;;;;;;;;5007117;28;20038;-72
2022/04/08 08:52:17;;;;;;;7.20;2.95;;;;;;;;;;5009413;28;20071;-72
2022/04/08 08:54:43;;;;;;;10.45;3.13;;;;;;;;;;5005950;28;20038;-72
2022/04/08 08:57:10;;;;;;;9.45;2.80;;;;;;;;;;5009427;28;20163;-72
2022/04/08 08:59:36;;;;;;;6.18;2.88;;;;;;;;;;5005857;28;20077;-72
2022/04/08 09:02:03;;;;;;;13.65;3.63;;;;;;;;;;5009490;28;20053;-72
2022/04/08 09:04:29;;;;;;;11.93;4.45;;;;;;;;;;5007040;28;20109;-72
2022/04/08 09:06:54;;;;;;;9.82;3.30;;;;;;;;;;5009570;28;20040;-72
2022/04/08 09:09:32;;;;;;;11.75;3.67;;;;;;;;;;5006532;28;20041;-72
2022/04/08 09:12:11;;;;;;;10.18;4.45;;;;;;;;;;5009454;28;20555;-72
2022/04/08 09:14:36;;;;;;;15.07;4.68;;;;;;;;;;5006344;28;20029;-72
2022/04/08 09:17:02;;;;;;;9.35;3.40;;;;;;;;;;5007477;28;20049;-72
2022/04/08 09:19:35;;;;;;;11.90;3.50;;;;;;;;;;5004608;28;20061;-72
2022/04/08 09:22:01;;;;;;;10.05;3.22;;;;;;;;;;5009336;28;20042;-72
2022/04/08 09:24:27;;;;;;;14.65;4.80;;;;;;;;;;5013343;28;20060;-72
2022/04/08 09:26:56;;;;;;;9.15;3.05;;;;;;;;;;5004701;28;20038;-72
2022/04/08 09:29:23;;;;;;;7.93;2.95;;;;;;;;;;5001971;28;20403;-72
2022/04/08 09:31:51;;;;;;;12.75;3.78;;;;;;;;;;5009246;28;20049;-72
2022/04/08 09:34:18;;;;;;;10.85;4.18;;;;;;;;;;5006347;28;20069;-72
2022/04/08 09:36:44;;;;;;;12.15;4.32;;;;;;;;;;5008939;28;20044;-72
2022/04/08 09:39:10;;;;;;;10.90;4.03;;;;;;;;;;5006983;28;20046;-72
2022/04/08 09:41:44;;;;;;;12.13;4.20;;;;;;;;;;5007934;28;20112;-72
2022/04/08 09:44:11;;;;;;;10.52;4.70;;;;;;;;;;5009366;28;20041;-72
2022/04/08 09:46:38;;;;;;;2.13;1.15;;;;;;;;;;5007362;28;20046;-72
2022/04/08 09:49:04;;;;;;;4.25;1.30;;;;;;;;;;5007184;28;20045;-72
2022/04/08 09:51:35;;;;;;;5.18;2.00;;;;;;;;;;4988553;28;20049;-73
2022/04/08 09:54:02;;;;;;;8.93;3.53;;;;;;;;;;5007476;28;20523;-72
2022/04/08 09:56:28;;;;;;;7.90;2.90;;;;;;;;;;5006848;28;20030;-73
2022/04/08 09:59:14;;;;;;;11.15;3.83;;;;;;;;;;5008921;28;20026;-72
2022/04/08 10:01:42;;;;;;;1.50;0.90;;;;;;;;;;5005911;28;20038;-72
2022/04/08 10:04:09;;;;;;;3.60;1.10;;;;;;;;;;5010911;28;20091;-72
2022/04/08 10:06:35;;;;;;;2.75;1.00;;;;;;;;;;5008495;28;20069;-72
2022/04/08 10:09:02;;;;;;;1.20;0.60;;;;;;;;;;5008632;28;20111;-72
2022/04/08 10:12:04;;;;;;;2.88;0.90;;;;;;;;;;5005919;28;20611;-72
2022/04/08 10:14:43;;;;;;;3.45;0.75;;;;;;;;;;5004108;28;20592;-72
2022/04/08 10:17:09;;;;;;;1.38;0.57;;;;;;;;;;5006872;28;20041;-72
2022/04/08 10:19:35;;;;;;;1.90;1.27;;;;;;;;;;5008413;28;20034;-72
2022/04/08 10:22:00;;;;;;;0.65;0.60;;;;;;;;;;5005922;28;20045;-72
2022/04/08 10:24:31;;;;;;;1.77;0.60;;;;;;;;;;5016761;28;20104;-72
2022/04/08 10:27:09;;;;;;;1.90;0.60;;;;;;;;;;5005587;28;20795;-72
2022/04/08 10:29:36;;;;;;;3.63;1.30;;;;;;;;;;5007768;28;20504;-71
2022/04/08 10:32:05;;;;;;;1.23;0.55;;;;;;;;;;5006439;28;20030;-72
2022/04/08 10:34:32;;;;;;;1.75;0.75;;;;;;;;;;5008066;28;20045;-72
2022/04/08 10:36:59;;;;;;;1.20;0.70;;;;;;;;;;5005417;28;20056;-72
2022/04/08 10:39:24;;;;;;;1.38;0.68;;;;;;;;;;5007381;28;20053;-72
2022/04/08 10:41:54;;;;;;;2.03;0.70;;;;;;;;;;5004444;28;20089;-72
2022/04/08 10:44:48;;;;;;;1.65;0.60;;;;;;;;;;5010181;28;20109;-72
2022/04/08 10:47:16;;;;;;;1.70;0.50;;;;;;;;;;4997013;28;20046;-72
2022/04/08 10:49:58;;;;;;;1.17;0.60;;;;;;;;;;5007566;28;20103;-71
2022/04/08 10:52:25;;;;;;;2.55;0.57;;;;;;;;;;5004973;28;20030;-72
2022/04/08 10:55:03;;;;;;;1.80;0.70;;;;;;;;;;5007381;28;20121;-72
2022/04/08 10:57:35;;;;;;;0.90;0.70;;;;;;;;;;5005702;28;20042;-72
2022/04/08 11:00:13;;;;;;;0.80;0.50;;;;;;;;;;5008453;28;20065;-72
2022/04/08 11:02:40;;;;;;;2.00;0.80;;;;;;;;;;5004478;28;20046;-72
2022/04/08 11:05:14;;;;;;;1.10;0.60;;;;;;;;;;5017888;28;20030;-72
2022/04/08 11:07:43;;;;;;;;;;;;;;;;;;5010144;28;20056;-72
2022/04/08 11:10:10;;;;;;;1.35;0.70;;;;;;;;;;5011327;28;19917;-72
2022/04/08 11:12:43;;;;;;;0.98;0.50;;;;;;;;;;5008929;28;20038;-72
2022/04/08 11:15:16;;;;;;;0.93;0.40;;;;;;;;;;5011084;28;20541;-72
2022/04/08 11:17:42;;;;;;;0.50;0.50;;;;;;;;;;5009284;28;20045;-72
2022/04/08 11:20:10;;;;;;;0.82;0.65;;;;;;;;;;5011560;28;20072;-72
2022/04/08 11:22:47;;;;;;;2.92;1.10;;;;;;;;;;5008888;28;20042;-72
2022/04/08 11:25:26;;;;;;;1.13;0.90;;;;;;;;;;4993503;28;20035;-72
2022/04/08 11:28:04;;;;;;;3.45;1.00;;;;;;;;;;5007895;28;20048;-72
2022/04/08 11:30:32;;;;;;;0.70;0.70;;;;;;;;;;5026360;28;20057;-72
2022/04/08 11:33:00;;;;;;;1.23;0.85;;;;;;;;;;5008629;28;20088;-72
2022/04/08 11:35:31;;;;;;;3.13;1.13;;;;;;;;;;5010996;28;20026;-72
2022/04/08 11:37:57;;;;;;;5.13;0.95;;;;;;;;;;5008814;28;20026;-72
2022/04/08 11:40:23;;;;;;;2.72;1.08;;;;;;;;;;5010932;28;20125;-72
2022/04/08 11:42:48;;;;;;;2.15;0.70;;;;;;;;;;5010670;28;20125;-72
2022/04/08 11:45:15;;;;;;;3.13;1.10;;;;;;;;;;5031197;28;20507;-72
2022/04/08 11:47:48;;;;;;;1.50;0.90;;;;;;;;;;5009176;28;20026;-72
2022/04/08 11:50:23;;;;;;;0.68;0.52;;;;;;;;;;5011810;28;20467;-72
2022/04/08 11:52:56;;;;;;;1.02;0.88;;;;;;;;;;5007394;28;20034;-72
2022/04/08 11:55:24;;;;;;;3.35;1.08;;;;;;;;;;5011619;28;20034;-72
2022/04/08 11:57:49;;;;;;;1.98;0.73;;;;;;;;;;5008668;28;20034;-72
2022/04/08 12:00:15;;;;;;;1.23;0.90;;;;;;;;;;5011275;28;20030;-72
2022/04/08 12:02:41;;;;;;;1.10;1.00;;;;;;;;;;5008136;28;20058;-72
2022/04/08 12:05:07;;;;;;;3.65;1.20;;;;;;;;;;5022348;28;20083;-72
2022/04/08 12:07:34;;;;;;;2.05;1.00;;;;;;;;;;5010038;28;20042;-72
2022/04/08 12:10:00;;;;;;;2.35;1.00;;;;;;;;;;5009714;28;20125;-72
2022/04/08 12:12:28;;;;;;;3.22;1.27;;;;;;;;;;5010184;28;20045;-72
2022/04/08 12:14:54;;;;;;;3.17;1.13;;;;;;;;;;5008070;28;20177;-72
2022/04/08 12:17:20;;;;;;;3.33;1.00;;;;;;;;;;5010112;28;20026;-72
2022/04/08 12:19:51;;;;;;;3.17;0.90;;;;;;;;;;5009323;28;20033;-72
2022/04/08 12:22:17;;;;;;;2.38;1.42;;;;;;;;;;5009748;28;20065;-72
2022/04/08 12:24:43;;;;;;;2.50;1.25;;;;;;;;;;5009568;28;20112;-72
2022/04/08 12:27:23;;;;;;;1.30;1.00;;;;;;;;;;5007138;28;20053;-72
2022/04/08 12:30:03;;;;;;;1.67;0.90;;;;;;;;;;5009186;28;20030;-72
2022/04/08 12:32:37;;;;;;;2.97;1.10;;;;;;;;;;5009028;28;20022;-72
2022/04/08 12:35:06;;;;;;;3.45;0.70;;;;;;;;;;5008942;28;20026;-72
2022/04/08 12:37:32;;;;;;;3.33;0.85;;;;;;;;;;5007798;28;20129;-72
2022/04/08 12:39:57;;;;;;;1.52;1.08;;;;;;;;;;5008166;28;20136;-72
2022/04/08 12:42:23;;;;;;;1.77;1.10;;;;;;;;;;5011011;28;20050;-72
2022/04/08 12:44:48;;;;;;;1.55;1.10;;;;;;;;;;5008264;28;20041;-72
2022/04/08 12:47:14;;;;;;;1.60;1.08;;;;;;;;;;5009602;28;20037;-72
2022/04/08 12:49:39;;;;;;;3.78;1.30;;;;;;;;;;5008684;28;20575;-72
2022/04/08 12:52:05;;;;;;;2.13;1.20;;;;;;;;;;5010009;28;20054;-72
2022/04/08 12:54:30;;;;;;;1.83;0.95;;;;;;;;;;5007612;28;20676;-72
2022/04/08 12:56:55;;;;;;;1.30;0.80;;;;;;;;;;5010064;28;20041;-72
2022/04/08 12:59:20;;;;;;;1.98;0.80;;;;;;;;;;5005973;28;20018;-72
2022/04/08 13:01:46;;;;;;;1.05;0.95;;;;;;;;;;5009188;28;20038;-72
2022/04/08 13:04:11;;;;;;;5.47;1.10;;;;;;;;;;5005494;28;20041;-72
2022/04/08 13:06:37;;;;;;;2.42;1.30;;;;;;;;;;5008336;28;20459;-72
2022/04/08 13:09:02;;;;;;;2.53;1.10;;;;;;;;;;5008196;28;20068;-72
2022/04/08 13:11:27;;;;;;;3.33;1.50;;;;;;;;;;5008275;28;20487;-72
2022/04/08 13:13:54;;;;;;;2.45;1.10;;;;;;;;;;5009162;28;20021;-72
2022/04/08 13:16:19;;;;;;;1.25;1.00;;;;;;;;;;5007840;28;20045;-72
2022/04/08 13:18:45;;;;;;;1.13;1.02;;;;;;;;;;5008521;28;20436;-72
2022/04/08 13:21:11;;;;;;;3.42;1.50;;;;;;;;;;5007661;28;20443;-72
2022/04/08 13:23:36;;;;;;;1.88;1.25;;;;;;;;;;5009350;28;20056;-72
2022/04/08 13:26:02;;;;;;;5.82;1.27;;;;;;;;;;5008091;28;20399;-73
2022/04/08 13:28:27;;;;;;;3.67;1.17;;;;;;;;;;5007565;28;20046;-72
2022/04/08 13:30:53;;;;;;;2.03;1.15;;;;;;;;;;5007028;28;20057;-72
2022/04/08 13:33:18;;;;;;;2.42;1.27;;;;;;;;;;5008748;28;20042;-72
2022/04/08 13:35:43;;;;;;;2.55;1.10;;;;;;;;;;5007893;28;21100;-72
2022/04/08 13:38:09;;;;;;;2.65;1.38;;;;;;;;;;5008560;28;20022;-72
2022/04/08 13:40:34;;;;;;;2.80;1.20;;;;;;;;;;5007488;28;20049;-72
2022/04/08 13:43:00;;;;;;;2.78;1.60;;;;;;;;;;5009916;28;20041;-72
2022/04/08 13:45:26;;;;;;;2.60;1.40;;;;;;;;;;5007784;28;20733;-72
2022/04/08 13:47:51;;;;;;;1.70;1.20;;;;;;;;;;5009775;28;20034;-73
2022/04/08 13:50:17;;;;;;;2.83;1.50;;;;;;;;;;5007658;28;20040;-72
2022/04/08 13:52:42;;;;;;;3.60;1.58;;;;;;;;;;5008713;28;20038;-72
2022/04/08 13:55:09;;;;;;;2.50;1.52;;;;;;;;;;5007634;28;20526;-72
2022/04/08 13:57:34;;;;;;;4.55;1.20;;;;;;;;;;5008050;28;20129;-72
2022/04/08 14:00:00;;;;;;;2.58;1.30;;;;;;;;;;5007241;28;20109;-72
2022/04/08 14:02:25;;;;;;;2.90;1.50;;;;;;;;;;5006633;28;20091;-72
2022/04/08 14:04:51;;;;;;;2.80;1.60;;;;;;;;;;5016889;28;20116;-72
2022/04/08 14:07:16;;;;;;;6.50;1.58;;;;;;;;;;5010909;28;20108;-72
2022/04/08 14:09:42;;;;;;;7.07;1.60;;;;;;;;;;5008021;28;20600;-72
2022/04/08 14:12:08;;;;;;;3.63;1.48;;;;;;;;;;5007209;28;20073;-72
2022/04/08 14:14:33;;;;;;;4.65;1.70;;;;;;;;;;5007623;28;20026;-72
2022/04/08 14:16:59;;;;;;;3.40;1.52;;;;;;;;;;5007436;28;20062;-72
2022/04/08 14:19:24;;;;;;;2.05;1.40;;;;;;;;;;5007958;28;20091;-72
2022/04/08 14:21:51;;;;;;;3.97;1.40;;;;;;;;;;4995438;28;20038;-72
2022/04/08 14:24:16;;;;;;;4.00;1.50;;;;;;;;;;4994586;28;20034;-72
2022/04/08 14:26:42;;;;;;;2.25;1.40;;;;;;;;;;5001559;28;20030;-72
2022/04/08 14:29:07;;;;;;;1.52;1.10;;;;;;;;;;4978580;28;20489;-72
2022/04/08 14:31:33;;;;;;;2.00;1.40;;;;;;;;;;4987006;28;20038;-72
2022/04/08 14:33:58;;;;;;;2.58;1.02;;;;;;;;;;4987651;28;20125;-73
2022/04/08 14:36:23;;;;;;;2.03;1.30;;;;;;;;;;4987406;28;20435;-72
2022/04/08 14:38:49;;;;;;;1.45;1.00;;;;;;;;;;4990029;28;20037;-72